Time;durP1;ratioP1;P1;durP2;ratioP2;P2;SDS_P1;SDS_P2;PMS_P1;PMS_P2;Temp;Humidity;BMP_temperature;BMP_pressure;BME280_temperature;BME280_humidity;BME280_pressure;Samples;Min_cycle;Max_cycle;Signal;HPM_P1;HPM_P2
2022/01/23 00:00:18;;;;;;;197.68;158.68;;;;;;;14.83;32.83;95058.88;5043953;28;20497;-66
2022/01/23 00:03:09;;;;;;;191.90;153.25;;;;;;;14.85;32.73;95049.63;5047081;28;20056;-67
2022/01/23 00:05:39;;;;;;;207.45;166.00;;;;;;;14.84;32.99;95056.94;5043573;28;20599;-67
2022/01/23 00:08:05;;;;;;;195.52;157.38;;;;;;;14.85;32.95;95057.72;5046679;28;20049;-67
2022/01/23 00:10:31;;;;;;;199.63;161.13;;;;;;;14.83;32.93;95053.50;5044543;28;20041;-67
2022/01/23 00:13:23;;;;;;;189.90;153.27;;;;;;;14.86;32.71;95056.53;5048419;28;20045;-67
2022/01/23 00:18:34;;;;;;;197.32;157.38;;;;;;;14.87;32.88;95056.13;5048134;28;20092;-67
2022/01/23 00:21:00;;;;;;;197.38;157.77;;;;;;;14.87;32.76;95055.38;5047579;28;20170;-67
2022/01/23 00:31:24;;;;;;;197.77;159.48;;;;;;;14.87;32.85;95061.53;5042709;28;20063;-66
2022/01/23 00:33:51;;;;;;;192.93;156.10;;;;;;;14.86;32.76;95051.91;5046421;28;20116;-67
2022/01/23 00:36:17;;;;;;;195.80;157.77;;;;;;;14.86;32.94;95053.84;5041681;28;20063;-66
2022/01/23 00:38:43;;;;;;;197.90;159.65;;;;;;;14.87;32.89;95055.38;5044844;28;20504;-67
2022/01/23 00:41:08;;;;;;;196.02;159.25;;;;;;;14.85;32.72;95055.78;5044509;28;20068;-67
2022/01/23 00:43:36;;;;;;;203.85;164.18;;;;;;;14.85;32.85;95049.63;5042663;28;20107;-67
2022/01/23 00:49:02;;;;;;;198.63;158.63;;;;;;;14.84;32.93;95048.88;5046149;28;20563;-68
2022/01/23 00:51:32;;;;;;;197.38;158.32;;;;;;;14.84;32.88;95056.94;5041887;28;20139;-67
2022/01/23 00:54:01;;;;;;;193.32;155.50;;;;;;;14.85;32.82;95053.09;5046068;28;20075;-67
2022/01/23 00:56:26;;;;;;;195.88;158.85;;;;;;;14.85;32.93;95052.31;5043559;28;20145;-67
2022/01/23 00:58:52;;;;;;;197.50;160.90;;;;;;;14.84;32.83;95056.94;5043624;28;20124;-67
2022/01/23 01:01:19;;;;;;;194.07;156.27;;;;;;;14.85;32.91;95055.03;5043636;28;20971;-67
2022/01/23 01:03:44;;;;;;;199.13;160.98;;;;;;;14.82;32.90;95054.66;5043553;28;20198;-67
2022/01/23 01:06:10;;;;;;;199.70;161.38;;;;;;;14.82;32.93;95051.97;5046982;28;20088;-68
2022/01/23 01:08:36;;;;;;;195.07;157.00;;;;;;;14.82;32.94;95056.59;5044636;28;20661;-67
2022/01/23 01:35:23;;;;;;;192.50;154.20;;;;;;;14.77;32.92;95063.19;5042307;28;20229;-67
2022/01/23 01:37:49;;;;;;;194.75;155.18;;;;;;;14.79;33.05;95058.16;5041334;28;20052;-67
2022/01/23 01:40:14;;;;;;;199.25;160.43;;;;;;;14.80;33.10;95064.31;5042836;28;20496;-67
2022/01/23 01:42:40;;;;;;;199.02;161.48;;;;;;;14.80;33.03;95064.31;5042233;28;20057;-67
2022/01/23 01:45:06;;;;;;;205.55;166.13;;;;;;;14.80;32.98;95056.25;5038405;28;20076;-67
2022/01/23 01:47:31;;;;;;;197.98;160.30;;;;;;;14.79;32.75;95058.16;5040961;28;20037;-67
2022/01/23 01:49:57;;;;;;;199.65;161.07;;;;;;;14.80;32.87;95061.63;5043625;28;20511;-66
2022/01/23 01:52:23;;;;;;;198.75;160.82;;;;;;;14.79;33.00;95052.03;5044642;28;20053;-67
2022/01/23 01:54:58;;;;;;;199.73;162.48;;;;;;;14.77;32.97;95057.81;5043543;28;20132;-67
2022/01/23 01:57:28;;;;;;;194.77;157.05;;;;;;;14.77;33.06;95057.81;5041832;28;20045;-67
2022/01/23 02:00:13;;;;;;;195.98;157.70;;;;;;;14.78;32.91;95062.03;5040383;28;20511;-67
2022/01/23 02:08:24;;;;;;;199.43;159.07;;;;;;;14.77;33.26;95057.81;5042734;28;20044;-67
2022/01/23 02:10:55;;;;;;;195.48;156.32;;;;;;;14.79;32.84;95062.78;5042123;28;20033;-67
2022/01/23 02:13:28;;;;;;;194.68;157.93;;;;;;;14.77;32.85;95057.81;5043149;28;20094;-67
2022/01/23 02:56:48;;;;;;;196.07;153.13;;;;;;;14.73;33.12;95051.72;5041037;28;20211;-67
2022/01/23 02:59:30;;;;;;;191.98;153.60;;;;;;;14.72;33.08;95044.81;5045886;28;20155;-66
2022/01/23 03:02:12;;;;;;;194.32;155.07;;;;;;;14.71;33.19;95045.22;5042406;28;20116;-67
2022/01/23 03:04:47;;;;;;;198.95;159.05;;;;;;;14.71;33.14;95045.22;5038997;28;20056;-67
2022/01/23 03:31:26;;;;;;;197.98;157.50;;;;;;;14.69;33.22;95042.16;5042461;28;20055;-67
2022/01/23 03:33:52;;;;;;;201.50;162.18;;;;;;;14.68;33.20;95046.78;5040409;28;20572;-67
2022/01/23 03:36:18;;;;;;;195.80;157.85;;;;;;;14.68;33.22;95046.78;5041776;28;20036;-67
2022/01/23 03:38:45;;;;;;;199.00;159.80;;;;;;;14.68;33.25;95046.03;5041091;28;20823;-67
2022/01/23 03:41:11;;;;;;;197.65;159.00;;;;;;;14.69;33.05;95047.56;5043574;28;20049;-67
2022/01/23 03:43:39;;;;;;;198.32;160.50;;;;;;;14.68;33.17;95048.72;5041391;28;20068;-66
2022/01/23 03:51:37;;;;;;;196.90;157.90;;;;;;;14.67;33.07;95039.13;5042072;28;20137;-66
2022/01/23 03:54:03;;;;;;;198.48;159.18;;;;;;;14.67;33.07;95041.81;5039177;28;20045;-67
2022/01/23 03:56:30;;;;;;;195.27;158.25;;;;;;;14.66;33.21;95040.28;5042677;28;20117;-67
2022/01/23 03:58:57;;;;;;;199.25;160.27;;;;;;;14.65;33.23;95042.22;5044419;28;20109;-66
2022/01/23 04:01:23;;;;;;;191.85;154.20;;;;;;;14.65;33.13;95044.91;5046431;28;20653;-67
2022/01/23 04:03:50;;;;;;;189.30;153.02;;;;;;;14.66;33.28;95040.28;5045214;28;20041;-67
2022/01/23 04:06:16;;;;;;;199.98;161.70;;;;;;;14.65;33.08;95033.38;5045152;28;20560;-66
2022/01/23 04:08:42;;;;;;;206.15;165.55;;;;;;;14.65;33.15;95038.75;5044926;28;20055;-67
2022/01/23 04:11:07;;;;;;;194.35;154.85;;;;;;;14.64;33.23;95037.25;5043699;28;20052;-66
2022/01/23 04:13:56;;;;;;;199.15;160.65;;;;;;;14.64;33.09;95032.63;5044325;28;20467;-67
2022/01/23 04:45:11;;;;;;;191.45;152.68;;;;;;;14.63;33.09;95062.63;5044343;28;20064;-66
2022/01/23 04:47:38;;;;;;;198.10;158.02;;;;;;;14.63;33.09;95058.00;5043436;28;20660;-67
2022/01/23 05:00:49;;;;;;;195.38;156.95;;;;;;;14.64;33.37;95046.06;5044530;28;20119;-66
2022/01/23 05:06:03;;;;;;;196.30;159.05;;;;;;;14.65;33.59;95042.22;5042227;28;20160;-67
2022/01/23 05:08:32;;;;;;;199.40;159.18;;;;;;;14.66;33.29;95040.28;5042566;28;20112;-67
2022/01/23 05:11:00;;;;;;;198.23;158.95;;;;;;;14.66;33.25;95046.44;5039606;28;20070;-67
2022/01/23 05:13:27;;;;;;;198.98;160.15;;;;;;;14.67;33.35;95063.34;5038165;28;20059;-66
2022/01/23 05:15:53;;;;;;;194.55;156.48;;;;;;;14.68;33.22;95051.41;5043467;28;20520;-66
2022/01/23 05:18:19;;;;;;;208.35;167.25;;;;;;;14.68;33.23;95046.78;5043861;28;20049;-67
2022/01/23 05:20:47;;;;;;;193.50;155.82;;;;;;;14.69;33.20;95050.25;5043151;28;20131;-67
2022/01/23 05:23:12;;;;;;;196.63;158.05;;;;;;;14.70;33.06;95051.78;5044392;28;20045;-66
2022/01/23 05:25:39;;;;;;;202.35;164.63;;;;;;;14.70;33.18;95049.84;5039077;28;20122;-66
2022/01/23 05:28:07;;;;;;;193.52;156.75;;;;;;;14.72;32.93;95065.59;5042350;28;20067;-66
2022/01/23 05:30:33;;;;;;;196.40;158.10;;;;;;;14.72;33.15;95074.44;5040679;28;20056;-67
2022/01/23 05:33:00;;;;;;;199.10;161.32;;;;;;;14.72;33.12;95074.44;5042190;28;20041;-66
2022/01/23 05:35:28;;;;;;;198.55;160.02;;;;;;;14.73;33.12;95075.19;5040623;28;20049;-67
2022/01/23 05:37:53;;;;;;;199.65;160.38;;;;;;;14.74;33.17;95079.41;5042037;28;20644;-66
2022/01/23 05:40:21;;;;;;;198.98;160.45;;;;;;;14.76;33.20;95077.06;5041210;28;20049;-67
2022/01/23 05:42:46;;;;;;;193.90;156.77;;;;;;;14.77;33.09;95067.81;5037110;28;20049;-67
2022/01/23 05:45:12;;;;;;;198.13;160.07;;;;;;;14.79;33.10;95052.03;5038375;28;20084;-66
2022/01/23 05:47:38;;;;;;;197.15;158.93;;;;;;;14.77;32.95;95044.34;5039079;28;20185;-67
2022/01/23 05:50:05;;;;;;;196.05;158.75;;;;;;;14.78;32.97;95040.50;5042372;28;20715;-67
2022/01/23 05:52:31;;;;;;;196.02;158.30;;;;;;;14.80;32.96;95046.22;5041154;28;20158;-67
2022/01/23 05:54:57;;;;;;;197.05;160.55;;;;;;;14.80;32.98;95043.53;5041182;28;20568;-66
2022/01/23 05:57:23;;;;;;;196.02;157.43;;;;;;;14.80;33.10;95048.94;5044540;28;20093;-67
2022/01/23 05:59:49;;;;;;;195.82;157.85;;;;;;;14.80;33.15;95043.53;5040795;28;20056;-67
2022/01/23 06:02:14;;;;;;;196.23;157.80;;;;;;;14.81;33.10;95039.69;5043926;28;20116;-67
2022/01/23 06:04:40;;;;;;;197.85;160.93;;;;;;;14.82;33.00;95030.44;5043144;28;20058;-67
2022/01/23 06:07:05;;;;;;;195.60;158.60;;;;;;;14.83;33.16;95047.34;5040273;28;20045;-68
2022/01/23 06:09:31;;;;;;;197.98;159.55;;;;;;;14.83;33.10;95058.88;5043558;28;20090;-67
2022/01/23 06:11:56;;;;;;;195.15;157.73;;;;;;;14.82;33.14;95070.06;5042129;28;20044;-66
2022/01/23 06:14:22;;;;;;;201.43;164.15;;;;;;;14.83;33.01;95064.28;5038532;28;20745;-67
2022/01/23 06:16:47;;;;;;;195.07;157.75;;;;;;;14.84;32.98;95067.72;5042822;28;20155;-67
2022/01/23 06:19:13;;;;;;;197.63;159.98;;;;;;;14.85;33.14;95069.25;5044360;28;20040;-66
2022/01/23 06:21:39;;;;;;;194.13;157.05;;;;;;;14.86;33.17;95057.31;5040759;28;20110;-67
2022/01/23 06:26:52;;;;;;;196.50;159.32;;;;;;;14.87;33.04;95058.06;5040330;28;20467;-67
2022/01/23 06:29:19;;;;;;;190.48;153.95;;;;;;;14.86;33.21;95060.00;5041291;28;20052;-67
2022/01/23 06:31:46;;;;;;;194.25;156.18;;;;;;;14.87;33.21;95058.06;5043035;28;20132;-67
2022/01/23 06:34:13;;;;;;;211.60;172.38;;;;;;;14.87;33.19;95053.44;5040393;28;20584;-66
2022/01/23 06:36:40;;;;;;;195.75;159.10;;;;;;;14.88;32.99;95057.66;5042942;28;20041;-66
2022/01/23 06:39:08;;;;;;;196.23;159.30;;;;;;;14.86;32.94;95054.63;5040387;28;20041;-67
2022/01/23 06:41:34;;;;;;;197.98;161.52;;;;;;;14.87;33.13;95069.59;5040368;28;20037;-67
2022/01/23 06:44:01;;;;;;;197.38;160.75;;;;;;;14.88;33.31;95073.81;5042262;28;20044;-67
2022/01/23 06:46:26;;;;;;;199.45;162.63;;;;;;;14.89;32.98;95082.66;5039236;28;20064;-67
2022/01/23 06:48:52;;;;;;;195.70;159.43;;;;;;;14.88;33.08;95087.28;5039701;28;20048;-67
2022/01/23 06:51:18;;;;;;;194.82;159.95;;;;;;;14.88;33.04;95095.38;5038898;28;20126;-66
2022/01/23 06:53:44;;;;;;;200.20;162.70;;;;;;;14.88;33.06;95095.38;5040639;28;20056;-67
2022/01/23 06:56:10;;;;;;;195.05;157.23;;;;;;;14.88;33.21;95103.44;5046200;28;20040;-67
2022/01/23 06:58:36;;;;;;;190.05;154.02;;;;;;;14.88;33.24;95105.38;5055473;28;20127;-67
2022/01/23 07:01:04;;;;;;;195.85;158.82;;;;;;;14.87;33.08;95101.91;5042328;28;20056;-66
2022/01/23 07:03:29;;;;;;;193.50;156.20;;;;;;;14.89;33.14;95101.50;5040208;28;20056;-66
2022/01/23 07:05:55;;;;;;;200.23;162.95;;;;;;;14.89;33.13;95104.97;5038688;28;20099;-67
2022/01/23 07:08:21;;;;;;;198.98;160.32;;;;;;;14.89;33.18;95099.59;5039972;28;20045;-67
2022/01/23 07:10:46;;;;;;;200.60;163.98;;;;;;;14.89;33.05;95106.91;5039357;28;20057;-67
2022/01/23 07:13:12;;;;;;;197.38;161.35;;;;;;;14.90;33.08;95113.81;5042408;28;20803;-67
2022/01/23 07:15:37;;;;;;;195.65;159.90;;;;;;;14.90;33.21;95121.91;5040716;28;20053;-66
2022/01/23 07:18:03;;;;;;;191.77;156.88;;;;;;;14.89;33.06;95104.97;5038765;28;20045;-67
2022/01/23 07:20:28;;;;;;;195.98;160.18;;;;;;;14.89;33.18;95107.66;5041464;28;20087;-66
2022/01/23 07:22:54;;;;;;;192.65;158.40;;;;;;;14.90;33.19;95109.19;5039815;28;20523;-67
2022/01/23 07:25:20;;;;;;;199.48;163.93;;;;;;;14.91;33.17;95109.94;5039881;28;20048;-66
2022/01/23 07:27:51;;;;;;;197.85;159.45;;;;;;;14.91;33.00;95109.94;5042643;28;20633;-67
2022/01/23 07:31:03;;;;;;;201.55;163.23;;;;;;;14.90;33.14;95106.50;5044009;28;20044;-67
2022/01/23 07:33:06;;;;;;;201.63;163.52;;;;;;;14.90;33.19;95109.19;5036996;28;20061;-67
2022/01/23 07:35:32;;;;;;;198.82;160.90;;;;;;;14.90;32.81;95119.19;5043709;28;20062;-67
2022/01/23 07:37:58;;;;;;;200.18;163.35;;;;;;;14.91;33.05;95124.19;5041828;28;20055;-66
2022/01/23 07:40:24;;;;;;;199.82;162.25;;;;;;;14.91;33.24;95131.50;5040254;28;20036;-67
2022/01/23 07:42:49;;;;;;;193.85;158.35;;;;;;;14.90;33.10;95125.34;5048523;28;20444;-67
2022/01/23 07:45:15;;;;;;;210.02;171.25;;;;;;;14.91;33.17;95124.19;5039345;28;20048;-66
2022/01/23 07:47:41;;;;;;;205.23;166.80;;;;;;;14.90;33.18;95128.03;5039316;28;20048;-66
2022/01/23 07:50:08;;;;;;;198.70;161.45;;;;;;;14.91;33.21;95121.50;5042902;28;20058;-66
2022/01/23 07:52:35;;;;;;;189.90;157.55;;;;;;;14.91;33.09;95126.88;5047228;28;20049;-68
2022/01/23 07:55:04;;;;;;;192.20;156.55;;;;;;;14.91;33.11;95136.88;5045204;28;20037;-70
2022/01/23 07:57:30;;;;;;;196.23;159.63;;;;;;;14.91;33.27;95142.28;5045043;28;20044;-69
2022/01/23 07:59:55;;;;;;;198.60;162.77;;;;;;;14.91;33.09;95145.72;5047885;28;20095;-68
2022/01/23 08:02:24;;;;;;;197.00;161.23;;;;;;;14.91;33.13;95145.72;5042400;28;20089;-68
2022/01/23 08:04:49;;;;;;;198.45;161.02;;;;;;;14.91;33.14;95145.72;5041248;28;20041;-66
2022/01/23 08:07:30;;;;;;;196.80;159.90;;;;;;;14.93;33.15;95145.31;5047299;28;20045;-67
2022/01/23 08:10:02;;;;;;;194.65;157.43;;;;;;;14.93;33.08;95146.09;5044837;28;20048;-69
2022/01/23 08:12:30;;;;;;;197.55;159.40;;;;;;;14.94;33.09;95150.31;5047099;28;20508;-66
2022/01/23 08:14:57;;;;;;;197.50;160.80;;;;;;;14.94;33.25;95150.31;5045316;28;20555;-63
2022/01/23 08:17:26;;;;;;;210.23;170.52;;;;;;;14.93;33.06;95154.16;5042415;28;20071;-64
2022/01/23 08:19:56;;;;;;;197.27;160.43;;;;;;;14.95;33.07;95151.81;5046010;28;20040;-64
2022/01/23 08:22:23;;;;;;;201.77;164.23;;;;;;;14.93;33.02;95146.09;5044626;28;20055;-68
2022/01/23 08:24:50;;;;;;;197.70;162.40;;;;;;;14.94;33.06;95155.69;5041998;28;20106;-66
2022/01/23 08:27:17;;;;;;;211.70;171.45;;;;;;;14.94;33.16;95157.63;5023104;28;20709;-66
2022/01/23 08:29:43;;;;;;;213.85;173.77;;;;;;;14.96;33.04;95171.41;5032526;28;20077;-66
2022/01/23 08:32:10;;;;;;;214.80;176.05;;;;;;;14.96;32.90;95174.13;5032562;28;20074;-66
2022/01/23 08:34:36;;;;;;;218.98;179.38;;;;;;;14.95;33.28;95178.00;5034483;28;20057;-66
2022/01/23 08:37:03;;;;;;;218.88;176.93;;;;;;;14.94;33.36;95182.63;5032071;28;20144;-67
2022/01/23 08:39:31;;;;;;;218.52;178.18;;;;;;;14.94;33.16;95192.63;5031590;28;20052;-67
2022/01/23 08:41:57;;;;;;;218.43;177.70;;;;;;;14.94;33.17;95192.63;5031810;28;20123;-66
2022/01/23 08:44:27;;;;;;;231.25;189.52;;;;;;;14.94;33.25;95195.34;5029910;28;21913;-66
2022/01/23 08:46:55;;;;;;;219.50;178.38;;;;;;;14.94;33.09;95204.19;5032994;28;20049;-67
2022/01/23 08:49:22;;;;;;;222.82;179.52;;;;;;;14.93;33.22;95210.72;5034012;28;20071;-66
2022/01/23 08:51:49;;;;;;;203.60;165.90;;;;;;;14.92;33.17;95216.53;5031197;28;20048;-66
2022/01/23 08:54:16;;;;;;;238.70;194.10;;;;;;;14.91;33.16;95207.69;5030998;28;20508;-66
2022/01/23 08:56:42;;;;;;;220.73;179.38;;;;;;;14.86;33.42;95205.44;5028613;28;20283;-66
2022/01/23 08:59:09;;;;;;;223.05;182.18;;;;;;;14.87;33.41;95211.59;5032430;28;20476;-66
2022/01/23 09:01:35;;;;;;;229.93;186.80;;;;;;;14.84;33.41;95207.75;5031214;28;20079;-66
2022/01/23 09:04:02;;;;;;;216.60;176.77;;;;;;;14.81;33.30;95197.78;5030629;28;20055;-66
2022/01/23 09:06:27;;;;;;;217.93;178.43;;;;;;;14.80;33.52;95190.88;5031016;28;20049;-66
2022/01/23 09:08:54;;;;;;;213.73;173.23;;;;;;;14.81;33.57;95189.72;5031366;28;20080;-67
2022/01/23 09:11:27;;;;;;;221.55;179.73;;;;;;;14.79;33.37;95190.13;5033301;28;20099;-66
2022/01/23 09:14:06;;;;;;;223.13;181.98;;;;;;;14.79;33.70;95184.72;5033570;28;20314;-66
2022/01/23 09:16:34;;;;;;;218.75;176.85;;;;;;;14.79;33.42;95176.66;5030994;28;20127;-66
2022/01/23 09:19:00;;;;;;;211.48;171.02;;;;;;;14.79;33.50;95181.28;5032110;28;20037;-66
2022/01/23 09:21:26;;;;;;;226.35;183.20;;;;;;;14.78;33.68;95177.81;5030506;28;20087;-67
2022/01/23 09:23:52;;;;;;;216.77;176.60;;;;;;;14.77;33.63;95181.69;5033398;28;20097;-66
2022/01/23 09:26:21;;;;;;;211.10;169.95;;;;;;;14.76;33.65;95174.78;5029200;28;20603;-66
2022/01/23 09:28:46;;;;;;;219.57;178.33;;;;;;;14.71;33.68;95171.75;5029468;28;20048;-66
2022/01/23 09:31:23;;;;;;;218.35;177.65;;;;;;;14.78;33.71;95171.69;5032288;28;20083;-66
2022/01/23 09:33:49;;;;;;;216.52;174.77;;;;;;;14.82;33.62;95173.16;5031045;28;20049;-65
2022/01/23 09:36:15;;;;;;;221.07;179.80;;;;;;;14.83;33.56;95169.28;5034523;28;20611;-66
2022/01/23 09:38:40;;;;;;;212.85;172.77;;;;;;;14.85;33.39;95173.50;5029409;28;20037;-66
2022/01/23 09:41:07;;;;;;;219.63;178.07;;;;;;;14.85;33.45;95178.91;5031094;28;20694;-66
2022/01/23 09:43:38;;;;;;;232.63;188.32;;;;;;;14.81;33.69;95166.25;5021891;28;20140;-65
2022/01/23 09:46:07;;;;;;;226.60;184.38;;;;;;;14.86;33.40;95175.03;5017133;28;20044;-64
2022/01/23 09:48:35;;;;;;;218.18;175.90;;;;;;;14.87;33.61;95171.19;5031454;28;20237;-64
2022/01/23 09:51:03;;;;;;;204.25;165.68;;;;;;;14.87;33.52;95171.94;5029545;28;20044;-64
2022/01/23 09:53:30;;;;;;;223.13;181.52;;;;;;;14.85;33.49;95173.50;5030654;28;20130;-62
2022/01/23 09:56:03;;;;;;;207.48;167.75;;;;;;;14.87;33.54;95171.94;5029186;28;21476;-66
2022/01/23 09:58:31;;;;;;;216.88;176.48;;;;;;;14.88;33.37;95172.72;5032909;28;20080;-64
2022/01/23 10:00:58;;;;;;;216.05;175.68;;;;;;;14.87;33.31;95163.09;5027018;28;20152;-63
2022/01/23 10:03:23;;;;;;;220.48;178.60;;;;;;;14.83;33.29;95155.84;5031523;28;20629;-64
2022/01/23 10:05:54;;;;;;;228.43;184.13;;;;;;;14.87;33.41;95160.41;5028310;28;20075;-67
2022/01/23 10:08:20;;;;;;;216.93;176.43;;;;;;;14.86;33.42;95166.97;5029652;28;21711;-63
2022/01/23 10:10:51;;;;;;;231.98;187.80;;;;;;;14.86;33.66;95162.34;5028498;28;20060;-63
2022/01/23 10:13:20;;;;;;;214.63;173.25;;;;;;;14.87;33.47;95155.78;5030823;28;20099;-64
2022/01/23 10:15:46;;;;;;;227.35;183.43;;;;;;;14.88;33.57;95148.47;5027065;28;20059;-63
2022/01/23 10:18:11;;;;;;;220.60;178.98;;;;;;;14.87;33.47;95147.72;5027389;28;20048;-63
2022/01/23 10:20:37;;;;;;;219.48;179.10;;;;;;;14.87;33.47;95149.63;5027719;28;20042;-63
2022/01/23 10:23:03;;;;;;;224.20;181.82;;;;;;;14.86;33.47;95148.09;5029468;28;20416;-64
2022/01/23 10:25:31;;;;;;;219.45;180.30;;;;;;;14.87;33.45;95149.63;5032111;28;20474;-65
2022/01/23 10:28:04;;;;;;;223.05;182.02;;;;;;;14.87;33.59;95146.94;5028987;28;20044;-65
2022/01/23 10:30:34;;;;;;;218.48;176.75;;;;;;;14.87;33.53;95139.63;5042484;28;20056;-65
2022/01/23 10:33:04;;;;;;;224.38;180.25;;;;;;;14.86;33.61;95142.72;5032814;28;20185;-66
2022/01/23 10:35:32;;;;;;;203.80;164.65;;;;;;;14.86;33.61;95148.09;5026582;28;20208;-65
2022/01/23 10:38:05;;;;;;;197.68;160.43;;;;;;;14.88;33.61;95140.38;5036071;28;20075;-64
2022/01/23 10:40:36;;;;;;;199.95;162.15;;;;;;;14.89;33.35;95144.59;5041015;28;20052;-64
2022/01/23 10:48:37;;;;;;;194.98;155.43;;;;;;;14.87;33.53;95122.72;5041945;28;20179;-64
2022/01/23 10:51:19;;;;;;;195.23;158.27;;;;;;;14.87;33.52;95117.31;5045237;28;20057;-63
2022/01/23 10:54:09;;;;;;;200.13;163.38;;;;;;;14.83;33.63;95104.66;5040861;28;20076;-65
2022/01/23 10:56:53;;;;;;;203.13;162.97;;;;;;;14.82;33.61;95115.84;5040862;28;20438;-64
2022/01/23 10:59:18;;;;;;;199.07;161.02;;;;;;;14.82;33.76;95122.00;5037799;28;20053;-64
2022/01/23 11:02:10;;;;;;;194.82;156.90;;;;;;;14.80;33.74;95118.19;5041567;28;20437;-63
2022/01/23 11:05:11;;;;;;;205.70;165.10;;;;;;;14.81;33.61;95122.41;5038024;28;20600;-64
2022/01/23 11:07:43;;;;;;;195.10;155.80;;;;;;;14.81;33.78;95128.53;5002460;28;20408;-64
2022/01/23 11:10:13;;;;;;;195.90;158.52;;;;;;;14.86;33.73;95130.03;5044377;28;20079;-64
2022/01/23 11:18:06;;;;;;;197.88;158.48;;;;;;;14.77;33.79;95132.44;5042797;28;20036;-64
2022/01/23 11:20:35;;;;;;;198.75;160.10;;;;;;;14.77;33.84;95140.53;5039396;28;20033;-63
2022/01/23 11:23:20;;;;;;;196.50;158.95;;;;;;;14.74;33.74;95134.03;5042020;28;20049;-65
2022/01/23 11:25:52;;;;;;;205.00;167.07;;;;;;;14.75;33.76;95146.31;5039665;28;20064;-65
2022/01/23 11:28:19;;;;;;;196.65;158.90;;;;;;;14.77;33.91;95137.84;5039113;28;20074;-64
2022/01/23 11:30:48;;;;;;;194.30;158.38;;;;;;;14.77;33.80;95135.16;5040779;28;20040;-65
2022/01/23 11:33:17;;;;;;;204.88;165.82;;;;;;;14.81;33.68;95136.63;5041070;28;20099;-63
2022/01/23 11:35:47;;;;;;;199.63;161.02;;;;;;;14.82;33.54;95138.16;5038116;28;20056;-64
2022/01/23 11:38:17;;;;;;;210.73;168.32;;;;;;;14.80;33.76;95127.03;5035008;28;20061;-64
2022/01/23 11:54:41;;;;;;;200.85;159.10;;;;;;;14.86;33.56;95124.63;5039856;28;20056;-63
2022/01/23 11:57:39;;;;;;;197.10;159.30;;;;;;;14.89;33.60;95117.69;5039519;28;21413;-63
2022/01/23 12:00:11;;;;;;;201.98;163.02;;;;;;;14.90;33.57;95119.97;5039011;28;20041;-63
2022/01/23 12:02:41;;;;;;;197.00;160.25;;;;;;;14.90;33.38;95119.19;5050759;28;20053;-64
2022/01/23 12:05:09;;;;;;;207.07;167.68;;;;;;;14.89;33.52;95107.66;5037285;28;20448;-64
2022/01/23 12:07:36;;;;;;;193.57;158.13;;;;;;;14.87;33.59;95106.53;5040272;28;20450;-63
2022/01/23 12:10:29;;;;;;;199.63;161.30;;;;;;;14.86;33.69;95113.88;5040206;28;20053;-63
2022/01/23 12:16:20;;;;;;;197.35;159.73;;;;;;;14.85;33.72;95103.50;5042342;28;20385;-65
2022/01/23 12:18:52;;;;;;;192.50;155.48;;;;;;;14.88;33.59;95097.28;5044168;28;20112;-64
2022/01/23 12:21:30;;;;;;;197.15;158.88;;;;;;;14.88;33.58;95100.75;5046098;28;20044;-64
2022/01/23 12:24:01;;;;;;;196.43;159.55;;;;;;;14.90;33.54;95101.09;5051718;28;20071;-65
2022/01/23 12:26:27;;;;;;;196.68;159.05;;;;;;;14.90;33.50;95098.41;5045483;28;20611;-63
2022/01/23 12:28:53;;;;;;;206.82;168.93;;;;;;;14.90;33.60;95100.34;5043450;28;20061;-62
2022/01/23 12:31:26;;;;;;;190.90;154.93;;;;;;;14.90;33.48;95103.03;5042573;28;20126;-63
2022/01/23 12:34:00;;;;;;;192.23;155.77;;;;;;;14.89;33.54;95096.88;5045499;28;20487;-64
2022/01/23 12:36:31;;;;;;;197.40;161.20;;;;;;;14.88;33.74;95095.38;5042606;28;20079;-64
2022/01/23 12:39:08;;;;;;;199.32;162.05;;;;;;;14.87;33.73;95096.53;5044258;28;20055;-65
2022/01/23 12:41:34;;;;;;;194.82;157.10;;;;;;;14.86;33.60;95088.88;5045535;28;20048;-64
2022/01/23 12:44:05;;;;;;;197.05;157.93;;;;;;;14.84;33.69;95086.56;5044439;28;20052;-64
2022/01/23 12:46:47;;;;;;;198.98;163.77;;;;;;;14.87;33.55;95087.69;5045433;28;20406;-63
2022/01/23 12:49:26;;;;;;;198.85;162.30;;;;;;;14.88;33.55;95081.13;5042294;28;20673;-64
2022/01/23 12:52:07;;;;;;;194.32;156.98;;;;;;;14.86;33.65;95084.25;5048793;28;20115;-64
2022/01/23 12:54:48;;;;;;;210.43;170.30;;;;;;;14.86;33.63;95081.53;5039522;28;20041;-62
2022/01/23 12:57:21;;;;;;;195.18;157.27;;;;;;;14.87;33.40;95075.00;5040058;28;20052;-63
2022/01/23 12:59:52;;;;;;;196.50;159.23;;;;;;;14.88;33.64;95084.59;5043802;28;20040;-64
2022/01/23 13:02:19;;;;;;;219.30;177.63;;;;;;;14.87;33.65;95085.75;5017045;28;20076;-63
2022/01/23 13:04:48;;;;;;;228.35;186.32;;;;;;;14.83;33.75;95083.13;5026596;28;20045;-63
2022/01/23 13:07:23;;;;;;;215.85;176.00;;;;;;;14.84;33.61;95078.50;5034131;28;20048;-62
2022/01/23 13:31:51;;;;;;;219.07;174.93;;;;;;;14.86;33.63;95088.88;5034536;28;20044;-63
2022/01/23 13:34:43;;;;;;;230.43;185.05;;;;;;;14.86;33.58;95096.94;5031848;28;20711;-65
2022/01/23 13:37:10;;;;;;;203.88;163.20;;;;;;;14.86;33.67;95099.63;5029976;28;20094;-65
2022/01/23 13:39:53;;;;;;;219.45;178.27;;;;;;;14.84;33.66;95094.66;5032582;28;20063;-63
2022/01/23 13:54:17;;;;;;;215.50;171.70;;;;;;;14.89;33.54;95079.97;5032257;28;20182;-63
2022/01/23 13:59:41;;;;;;;212.50;169.93;;;;;;;14.89;33.46;95083.44;5031954;28;20044;-62
2022/01/23 14:02:19;;;;;;;224.63;179.52;;;;;;;14.90;33.64;95081.50;5033759;28;20496;-62
2022/01/23 14:04:56;;;;;;;213.98;171.68;;;;;;;14.89;33.65;95080.72;5027121;28;20130;-63
2022/01/23 14:07:27;;;;;;;217.80;176.00;;;;;;;14.91;33.60;95077.63;5031704;28;20048;-64
2022/01/23 14:09:59;;;;;;;215.73;174.93;;;;;;;14.90;33.53;95082.25;5033359;28;20056;-65
2022/01/23 14:12:26;;;;;;;216.75;174.05;;;;;;;14.90;33.56;95086.88;5033725;28;20036;-63
2022/01/23 14:14:56;;;;;;;230.20;186.18;;;;;;;14.91;33.60;95083.78;5031496;28;20135;-64
2022/01/23 14:17:28;;;;;;;220.27;177.77;;;;;;;14.93;33.53;95084.13;5034262;28;20049;-63
2022/01/23 14:20:20;;;;;;;223.23;180.93;;;;;;;14.94;33.57;95076.81;5033659;28;20861;-64
2022/01/23 14:22:47;;;;;;;219.15;177.88;;;;;;;14.95;33.55;95078.34;5032446;28;20060;-62
2022/01/23 14:25:26;;;;;;;224.75;180.43;;;;;;;14.96;33.40;95079.84;5030288;28;20060;-64
2022/01/23 14:28:09;;;;;;;219.38;175.57;;;;;;;14.96;33.38;95080.59;5034827;28;20916;-63
2022/01/23 14:30:43;;;;;;;219.35;175.98;;;;;;;14.95;33.49;95067.56;5032076;28;20063;-62
2022/01/23 14:33:22;;;;;;;220.45;178.43;;;;;;;14.95;33.42;95071.00;5027696;28;20163;-62
2022/01/23 14:35:49;;;;;;;212.85;173.55;;;;;;;14.95;33.39;95068.31;5028807;28;20057;-62
2022/01/23 14:38:23;;;;;;;227.45;184.75;;;;;;;14.98;33.42;95074.81;5025794;28;20057;-64
2022/01/23 14:41:07;;;;;;;219.75;178.55;;;;;;;14.97;33.47;95078.66;5029848;28;20079;-62
2022/01/23 14:43:33;;;;;;;224.55;182.15;;;;;;;14.95;33.44;95086.44;5028751;28;20477;-63
2022/01/23 14:46:03;;;;;;;213.73;174.27;;;;;;;14.96;33.34;95079.84;5027268;28;20136;-64
2022/01/23 14:48:28;;;;;;;;;;;;;;;14.94;33.50;95074.88;5030483;28;20481;-64
2022/01/23 14:50:56;;;;;;;220.75;174.27;;;;;;;14.94;33.41;95082.22;5033006;28;20050;-63
2022/01/23 14:53:24;;;;;;;218.77;176.25;;;;;;;14.93;33.48;95078.75;5027499;28;20114;-62
2022/01/23 14:56:01;;;;;;;217.85;176.05;;;;;;;14.94;33.52;95082.97;5030504;28;20044;-64